Airfield :
LOGIN :

Register | Disclaimer

   EN    FR    IT 

 










Legend :    VFR   Marginal VFR   IFR   Intensive IFR   Very Intensive IFR
Visi :
Ceiling :
>= 8 km
>= 3000ft
5 to 8 km
1000 to 3000 ft
1500m to 5 km
500 to 1000 ft
800 to 1500m
200 to 500 ft
< 800m
< 200 ft
Symbols :   Thunderstorms  Fog  Heavy snow  Heavy precipitations  Wind > 20 kt
SIGMETs :     Misc.  Thunderstorms  Icing  Turbulence  Mountain Waves  Volcanic Ashes







- Airport Elevation : 13 ft
- IATA code : SNR
- Download approach charts


LFRZ - St-Nazaire

CURRENT METAR :
  • 301630Z AUTO 21017KT 9999 FEW026/// ///TCU 12/06 Q0998 TEMPO 22015G30KT 2000 TSRA BKN014 BKN040CB

EXPIRED METARs :
  • 301600Z AUTO 22019KT CAVOK 12/06 Q0998 TEMPO 22015G30KT 2000 TSRA BKN014 BKN040CB
  • 301530Z AUTO 23017KT 9999 SCT026 BKN039 BKN049 12/07 Q0998 TEMPO 22015G30KT 2000 TSRA BKN014 BKN040CB
  • 301500Z AUTO 23021G34KT 200V260 9999 SCT027 BKN046 BKN056 12/07 Q0998 TEMPO 2000 TSRA BKN014 BKN040CB
  • 301430Z AUTO 22013KT 9999 FEW022/// BKN027/// BKN041/// ///TCU 11/08 Q0998 TEMPO 22015G30KT 2000 TSRA BKN014 BKN040CB
  • 301400Z AUTO 22017KT 190V250 9000 FEW016/// BKN023/// BKN031/// ///TCU 13/08 Q0997 TEMPO 22015G30KT 2000 TSRA BKN014 BKN040CB

TAF TAF LFRZ
Valid from the 30 at 12:00 until the 01 at 12:00 UTC


301100Z 3012/0112 22012KT 9999 SCT018 BKN040
TEMPO 3012/3024 22015G30KT 4000 RA BKN014 BKN040CB
PROB40
TEMPO 3012/3022 2000 TSRA
FM010900 24014G24KT 9999 BKN050
No reported NOTAMs for that airfield.
1 SIGMET reported for the Brest FIR (LFRR) :
 
Embedded thunderstorms
LFRR SIGMET 8 VALID 301500/301700 LFPW
LFRR BREST FIR/UIR EMBD TS OBS WI N4915 W00015 - N4830 W00015 - N4830 W00115 - N4915 W00115 TOP FL300 STNR NC=



MET'MAP, your aeronautical weather chart ! - Copyright ORBIFLY December 2007 - Disclaimer

ORBIFLY MET'MAP TEAM :

Programming & Development : Alexandra Zaïnal
Concept & Development : Baudouin d'Aumeries
Co-Development & Prog : Marc-Olivier Méhu
Technical & hardware support : Manuel Goepfert

Contact : metmap@orbifly.com




SOURCES & CREDITS :

   NOAA